sensor_id;sensor_type;location;lat;lon;timestamp;P1;durP1;ratioP1;P2;durP2;ratioP2
18610;SDS011;9435;52.122;5.502;2024-01-30T00:00:40;29.25;;;16.70;;
18610;SDS011;9435;52.122;5.502;2024-01-30T00:03:07;27.90;;;15.70;;
18610;SDS011;9435;52.122;5.502;2024-01-30T00:05:34;28.98;;;16.30;;
18610;SDS011;9435;52.122;5.502;2024-01-30T00:08:02;26.95;;;15.48;;
18610;SDS011;9435;52.122;5.502;2024-01-30T00:10:30;28.17;;;15.27;;
18610;SDS011;9435;52.122;5.502;2024-01-30T00:12:57;30.13;;;15.93;;
18610;SDS011;9435;52.122;5.502;2024-01-30T00:15:25;28.55;;;15.10;;
18610;SDS011;9435;52.122;5.502;2024-01-30T00:17:52;29.20;;;15.40;;
18610;SDS011;9435;52.122;5.502;2024-01-30T00:20:19;29.33;;;15.40;;
18610;SDS011;9435;52.122;5.502;2024-01-30T00:22:47;27.90;;;15.25;;
18610;SDS011;9435;52.122;5.502;2024-01-30T00:25:15;26.85;;;14.88;;
18610;SDS011;9435;52.122;5.502;2024-01-30T00:27:43;28.90;;;15.45;;
18610;SDS011;9435;52.122;5.502;2024-01-30T00:30:11;31.85;;;15.75;;
18610;SDS011;9435;52.122;5.502;2024-01-30T00:32:38;27.95;;;15.00;;
18610;SDS011;9435;52.122;5.502;2024-01-30T00:35:06;26.70;;;15.68;;
18610;SDS011;9435;52.122;5.502;2024-01-30T00:37:35;27.13;;;14.85;;
18610;SDS011;9435;52.122;5.502;2024-01-30T00:40:02;28.63;;;15.27;;
18610;SDS011;9435;52.122;5.502;2024-01-30T00:42:31;27.52;;;15.02;;
18610;SDS011;9435;52.122;5.502;2024-01-30T00:44:59;28.67;;;15.15;;
18610;SDS011;9435;52.122;5.502;2024-01-30T00:47:26;28.10;;;14.80;;
18610;SDS011;9435;52.122;5.502;2024-01-30T00:49:54;29.65;;;15.60;;
18610;SDS011;9435;52.122;5.502;2024-01-30T00:52:21;26.40;;;14.82;;
18610;SDS011;9435;52.122;5.502;2024-01-30T00:54:48;27.58;;;15.18;;
18610;SDS011;9435;52.122;5.502;2024-01-30T00:57:15;28.40;;;15.20;;
18610;SDS011;9435;52.122;5.502;2024-01-30T00:59:42;24.90;;;14.30;;
18610;SDS011;9435;52.122;5.502;2024-01-30T01:02:11;31.20;;;15.45;;
18610;SDS011;9435;52.122;5.502;2024-01-30T01:04:39;28.35;;;15.15;;
18610;SDS011;9435;52.122;5.502;2024-01-30T01:07:06;26.65;;;15.00;;
18610;SDS011;9435;52.122;5.502;2024-01-30T01:09:33;28.67;;;15.70;;
18610;SDS011;9435;52.122;5.502;2024-01-30T01:12:00;28.55;;;14.85;;
18610;SDS011;9435;52.122;5.502;2024-01-30T01:14:27;30.25;;;15.57;;
18610;SDS011;9435;52.122;5.502;2024-01-30T01:16:54;30.40;;;15.43;;
18610;SDS011;9435;52.122;5.502;2024-01-30T01:19:25;26.42;;;14.77;;
18610;SDS011;9435;52.122;5.502;2024-01-30T01:21:53;28.92;;;15.63;;
18610;SDS011;9435;52.122;5.502;2024-01-30T01:24:20;30.75;;;15.80;;
18610;SDS011;9435;52.122;5.502;2024-01-30T01:26:47;26.02;;;13.90;;
18610;SDS011;9435;52.122;5.502;2024-01-30T01:29:15;28.05;;;13.95;;
18610;SDS011;9435;52.122;5.502;2024-01-30T01:31:42;28.17;;;15.00;;
18610;SDS011;9435;52.122;5.502;2024-01-30T01:34:09;24.83;;;13.85;;
18610;SDS011;9435;52.122;5.502;2024-01-30T01:36:38;31.13;;;15.85;;
18610;SDS011;9435;52.122;5.502;2024-01-30T01:39:05;26.60;;;14.23;;
18610;SDS011;9435;52.122;5.502;2024-01-30T01:41:32;26.33;;;14.75;;
18610;SDS011;9435;52.122;5.502;2024-01-30T01:43:59;27.90;;;14.75;;
18610;SDS011;9435;52.122;5.502;2024-01-30T01:46:27;28.38;;;14.48;;
18610;SDS011;9435;52.122;5.502;2024-01-30T01:48:56;27.00;;;14.20;;
18610;SDS011;9435;52.122;5.502;2024-01-30T01:51:23;26.45;;;14.13;;
18610;SDS011;9435;52.122;5.502;2024-01-30T01:53:54;27.38;;;15.07;;
18610;SDS011;9435;52.122;5.502;2024-01-30T01:56:23;28.80;;;15.05;;
18610;SDS011;9435;52.122;5.502;2024-01-30T01:58:51;26.27;;;14.55;;
18610;SDS011;9435;52.122;5.502;2024-01-30T02:01:21;26.73;;;14.82;;
18610;SDS011;9435;52.122;5.502;2024-01-30T02:03:49;24.30;;;13.43;;
18610;SDS011;9435;52.122;5.502;2024-01-30T02:06:16;26.30;;;15.57;;
18610;SDS011;9435;52.122;5.502;2024-01-30T02:08:44;28.67;;;15.40;;
18610;SDS011;9435;52.122;5.502;2024-01-30T02:11:12;27.10;;;14.52;;
18610;SDS011;9435;52.122;5.502;2024-01-30T02:13:41;26.25;;;14.35;;
18610;SDS011;9435;52.122;5.502;2024-01-30T02:16:08;24.35;;;13.95;;
18610;SDS011;9435;52.122;5.502;2024-01-30T02:18:35;26.67;;;14.82;;
18610;SDS011;9435;52.122;5.502;2024-01-30T02:21:08;24.33;;;13.90;;
18610;SDS011;9435;52.122;5.502;2024-01-30T02:23:35;28.77;;;15.00;;
18610;SDS011;9435;52.122;5.502;2024-01-30T02:26:04;24.73;;;13.88;;
18610;SDS011;9435;52.122;5.502;2024-01-30T02:28:31;30.65;;;14.90;;
18610;SDS011;9435;52.122;5.502;2024-01-30T02:30:58;26.30;;;14.95;;
18610;SDS011;9435;52.122;5.502;2024-01-30T02:33:25;27.70;;;14.07;;
18610;SDS011;9435;52.122;5.502;2024-01-30T02:35:52;26.30;;;14.43;;
18610;SDS011;9435;52.122;5.502;2024-01-30T02:38:21;25.42;;;14.27;;
18610;SDS011;9435;52.122;5.502;2024-01-30T02:40:48;27.55;;;14.70;;
18610;SDS011;9435;52.122;5.502;2024-01-30T02:43:16;26.50;;;14.18;;
18610;SDS011;9435;52.122;5.502;2024-01-30T02:45:43;31.25;;;15.15;;
18610;SDS011;9435;52.122;5.502;2024-01-30T02:48:10;32.05;;;16.23;;
18610;SDS011;9435;52.122;5.502;2024-01-30T02:50:37;31.45;;;16.27;;
18610;SDS011;9435;52.122;5.502;2024-01-30T02:53:04;33.30;;;16.92;;
18610;SDS011;9435;52.122;5.502;2024-01-30T02:55:33;32.50;;;17.17;;
18610;SDS011;9435;52.122;5.502;2024-01-30T02:58:00;35.40;;;17.45;;
18610;SDS011;9435;52.122;5.502;2024-01-30T03:00:27;45.70;;;18.95;;
18610;SDS011;9435;52.122;5.502;2024-01-30T03:02:54;38.70;;;18.90;;
18610;SDS011;9435;52.122;5.502;2024-01-30T03:05:21;37.80;;;19.02;;
18610;SDS011;9435;52.122;5.502;2024-01-30T03:07:48;37.05;;;19.02;;
18610;SDS011;9435;52.122;5.502;2024-01-30T03:10:16;39.83;;;18.98;;
18610;SDS011;9435;52.122;5.502;2024-01-30T03:12:44;37.13;;;19.00;;
18610;SDS011;9435;52.122;5.502;2024-01-30T03:15:11;36.28;;;17.92;;
18610;SDS011;9435;52.122;5.502;2024-01-30T03:17:38;34.78;;;18.38;;
18610;SDS011;9435;52.122;5.502;2024-01-30T03:20:06;34.45;;;17.33;;
18610;SDS011;9435;52.122;5.502;2024-01-30T03:22:34;34.45;;;16.73;;
18610;SDS011;9435;52.122;5.502;2024-01-30T03:25:01;32.30;;;16.77;;
18610;SDS011;9435;52.122;5.502;2024-01-30T03:27:28;30.80;;;16.33;;
18610;SDS011;9435;52.122;5.502;2024-01-30T03:29:57;31.65;;;15.15;;
18610;SDS011;9435;52.122;5.502;2024-01-30T03:32:24;26.38;;;14.52;;
18610;SDS011;9435;52.122;5.502;2024-01-30T03:34:51;27.05;;;15.00;;
18610;SDS011;9435;52.122;5.502;2024-01-30T03:37:18;25.48;;;14.23;;
18610;SDS011;9435;52.122;5.502;2024-01-30T03:39:45;25.20;;;13.57;;
18610;SDS011;9435;52.122;5.502;2024-01-30T03:42:12;27.17;;;13.95;;
18610;SDS011;9435;52.122;5.502;2024-01-30T03:44:39;26.83;;;14.10;;
18610;SDS011;9435;52.122;5.502;2024-01-30T03:47:08;25.15;;;13.55;;
18610;SDS011;9435;52.122;5.502;2024-01-30T03:49:35;24.67;;;13.43;;
18610;SDS011;9435;52.122;5.502;2024-01-30T03:52:02;25.05;;;13.52;;
18610;SDS011;9435;52.122;5.502;2024-01-30T03:54:29;23.55;;;13.10;;
18610;SDS011;9435;52.122;5.502;2024-01-30T03:56:56;22.13;;;13.00;;
18610;SDS011;9435;52.122;5.502;2024-01-30T03:59:23;26.70;;;13.93;;
18610;SDS011;9435;52.122;5.502;2024-01-30T04:01:51;26.55;;;14.38;;
18610;SDS011;9435;52.122;5.502;2024-01-30T04:04:19;25.85;;;13.43;;
18610;SDS011;9435;52.122;5.502;2024-01-30T04:06:47;24.60;;;12.88;;
18610;SDS011;9435;52.122;5.502;2024-01-30T04:09:14;25.88;;;13.18;;
18610;SDS011;9435;52.122;5.502;2024-01-30T04:11:41;23.33;;;13.07;;
18610;SDS011;9435;52.122;5.502;2024-01-30T04:14:08;23.92;;;13.10;;
18610;SDS011;9435;52.122;5.502;2024-01-30T04:16:36;25.73;;;13.55;;
18610;SDS011;9435;52.122;5.502;2024-01-30T04:19:03;27.60;;;13.10;;
18610;SDS011;9435;52.122;5.502;2024-01-30T04:21:31;23.05;;;12.85;;
18610;SDS011;9435;52.122;5.502;2024-01-30T04:23:58;23.25;;;13.10;;
18610;SDS011;9435;52.122;5.502;2024-01-30T04:26:25;22.98;;;12.63;;
18610;SDS011;9435;52.122;5.502;2024-01-30T04:28:52;23.80;;;12.65;;
18610;SDS011;9435;52.122;5.502;2024-01-30T04:31:19;25.75;;;13.02;;
18610;SDS011;9435;52.122;5.502;2024-01-30T04:33:46;26.92;;;13.45;;
18610;SDS011;9435;52.122;5.502;2024-01-30T04:36:14;24.92;;;13.45;;
18610;SDS011;9435;52.122;5.502;2024-01-30T04:38:42;23.77;;;13.07;;
18610;SDS011;9435;52.122;5.502;2024-01-30T04:41:09;27.08;;;13.48;;
18610;SDS011;9435;52.122;5.502;2024-01-30T04:43:36;27.45;;;13.30;;
18610;SDS011;9435;52.122;5.502;2024-01-30T04:46:04;25.00;;;13.27;;
18610;SDS011;9435;52.122;5.502;2024-01-30T04:48:31;22.33;;;12.63;;
18610;SDS011;9435;52.122;5.502;2024-01-30T04:50:58;23.85;;;12.70;;
18610;SDS011;9435;52.122;5.502;2024-01-30T04:53:28;22.75;;;12.40;;
18610;SDS011;9435;52.122;5.502;2024-01-30T04:55:57;27.58;;;12.63;;
18610;SDS011;9435;52.122;5.502;2024-01-30T04:58:24;25.10;;;11.82;;
18610;SDS011;9435;52.122;5.502;2024-01-30T05:00:51;22.70;;;11.73;;
18610;SDS011;9435;52.122;5.502;2024-01-30T05:03:20;20.90;;;11.60;;
18610;SDS011;9435;52.122;5.502;2024-01-30T05:05:48;24.60;;;11.90;;
18610;SDS011;9435;52.122;5.502;2024-01-30T05:08:15;22.65;;;11.70;;
18610;SDS011;9435;52.122;5.502;2024-01-30T05:10:42;25.00;;;11.98;;
18610;SDS011;9435;52.122;5.502;2024-01-30T05:13:11;22.80;;;12.40;;
18610;SDS011;9435;52.122;5.502;2024-01-30T05:15:39;25.30;;;12.02;;
18610;SDS011;9435;52.122;5.502;2024-01-30T05:18:06;25.17;;;11.93;;
18610;SDS011;9435;52.122;5.502;2024-01-30T05:20:33;22.08;;;11.32;;
18610;SDS011;9435;52.122;5.502;2024-01-30T05:23:00;24.08;;;11.75;;
18610;SDS011;9435;52.122;5.502;2024-01-30T05:25:27;20.65;;;11.40;;
18610;SDS011;9435;52.122;5.502;2024-01-30T05:27:54;21.48;;;11.10;;
18610;SDS011;9435;52.122;5.502;2024-01-30T05:30:23;19.48;;;11.48;;
18610;SDS011;9435;52.122;5.502;2024-01-30T05:32:50;21.45;;;11.50;;
18610;SDS011;9435;52.122;5.502;2024-01-30T05:35:17;22.70;;;11.10;;
18610;SDS011;9435;52.122;5.502;2024-01-30T05:37:46;22.40;;;11.18;;
18610;SDS011;9435;52.122;5.502;2024-01-30T05:40:14;22.52;;;11.75;;
18610;SDS011;9435;52.122;5.502;2024-01-30T05:42:41;21.65;;;10.52;;
18610;SDS011;9435;52.122;5.502;2024-01-30T05:45:08;21.15;;;11.38;;
18610;SDS011;9435;52.122;5.502;2024-01-30T05:47:37;22.92;;;11.23;;
18610;SDS011;9435;52.122;5.502;2024-01-30T05:50:07;20.98;;;11.68;;
18610;SDS011;9435;52.122;5.502;2024-01-30T05:52:34;21.67;;;11.48;;
18610;SDS011;9435;52.122;5.502;2024-01-30T05:55:01;22.92;;;11.77;;
18610;SDS011;9435;52.122;5.502;2024-01-30T05:57:28;22.00;;;11.00;;
18610;SDS011;9435;52.122;5.502;2024-01-30T05:59:56;19.27;;;11.10;;
18610;SDS011;9435;52.122;5.502;2024-01-30T06:02:23;21.50;;;11.10;;
18610;SDS011;9435;52.122;5.502;2024-01-30T06:04:51;19.25;;;10.68;;
18610;SDS011;9435;52.122;5.502;2024-01-30T06:07:18;21.40;;;11.05;;
18610;SDS011;9435;52.122;5.502;2024-01-30T06:09:45;19.15;;;11.30;;
18610;SDS011;9435;52.122;5.502;2024-01-30T06:12:12;19.95;;;11.60;;
18610;SDS011;9435;52.122;5.502;2024-01-30T06:14:39;26.63;;;14.00;;
18610;SDS011;9435;52.122;5.502;2024-01-30T06:17:07;21.42;;;11.68;;
18610;SDS011;9435;52.122;5.502;2024-01-30T06:19:34;19.60;;;11.10;;
18610;SDS011;9435;52.122;5.502;2024-01-30T06:22:06;22.83;;;11.32;;
18610;SDS011;9435;52.122;5.502;2024-01-30T06:24:33;20.92;;;10.80;;
18610;SDS011;9435;52.122;5.502;2024-01-30T06:27:00;22.33;;;10.82;;
18610;SDS011;9435;52.122;5.502;2024-01-30T06:29:30;20.70;;;11.00;;
18610;SDS011;9435;52.122;5.502;2024-01-30T06:31:58;22.95;;;11.52;;
18610;SDS011;9435;52.122;5.502;2024-01-30T06:34:25;19.80;;;11.25;;
18610;SDS011;9435;52.122;5.502;2024-01-30T06:36:52;21.40;;;11.10;;
18610;SDS011;9435;52.122;5.502;2024-01-30T06:39:21;21.42;;;11.25;;
18610;SDS011;9435;52.122;5.502;2024-01-30T06:41:48;17.90;;;10.38;;
18610;SDS011;9435;52.122;5.502;2024-01-30T06:44:15;22.30;;;10.90;;
18610;SDS011;9435;52.122;5.502;2024-01-30T06:46:42;19.90;;;11.13;;
18610;SDS011;9435;52.122;5.502;2024-01-30T06:49:10;20.20;;;10.50;;
18610;SDS011;9435;52.122;5.502;2024-01-30T06:51:37;20.33;;;10.63;;
18610;SDS011;9435;52.122;5.502;2024-01-30T06:54:04;19.92;;;10.70;;
18610;SDS011;9435;52.122;5.502;2024-01-30T06:56:33;22.00;;;10.38;;
18610;SDS011;9435;52.122;5.502;2024-01-30T06:59:00;20.50;;;10.73;;
18610;SDS011;9435;52.122;5.502;2024-01-30T07:01:28;20.33;;;11.15;;
18610;SDS011;9435;52.122;5.502;2024-01-30T07:03:55;22.15;;;10.98;;
18610;SDS011;9435;52.122;5.502;2024-01-30T07:06:23;21.25;;;10.35;;
18610;SDS011;9435;52.122;5.502;2024-01-30T07:08:50;22.70;;;10.65;;
18610;SDS011;9435;52.122;5.502;2024-01-30T07:11:18;20.02;;;10.35;;
18610;SDS011;9435;52.122;5.502;2024-01-30T07:13:48;20.17;;;10.43;;
18610;SDS011;9435;52.122;5.502;2024-01-30T07:16:16;20.35;;;10.30;;
18610;SDS011;9435;52.122;5.502;2024-01-30T07:18:43;21.08;;;10.85;;
18610;SDS011;9435;52.122;5.502;2024-01-30T07:21:12;21.42;;;10.60;;
18610;SDS011;9435;52.122;5.502;2024-01-30T07:23:40;19.80;;;9.98;;
18610;SDS011;9435;52.122;5.502;2024-01-30T07:26:07;18.85;;;10.38;;
18610;SDS011;9435;52.122;5.502;2024-01-30T07:28:34;20.10;;;10.40;;
18610;SDS011;9435;52.122;5.502;2024-01-30T07:31:03;18.75;;;9.95;;
18610;SDS011;9435;52.122;5.502;2024-01-30T07:33:31;19.25;;;10.27;;
18610;SDS011;9435;52.122;5.502;2024-01-30T07:35:58;19.00;;;10.20;;
18610;SDS011;9435;52.122;5.502;2024-01-30T07:38:25;20.75;;;10.18;;
18610;SDS011;9435;52.122;5.502;2024-01-30T07:40:52;19.08;;;10.25;;
18610;SDS011;9435;52.122;5.502;2024-01-30T07:43:19;20.30;;;9.95;;
18610;SDS011;9435;52.122;5.502;2024-01-30T07:45:47;17.23;;;9.90;;
18610;SDS011;9435;52.122;5.502;2024-01-30T07:48:16;19.83;;;10.40;;
18610;SDS011;9435;52.122;5.502;2024-01-30T07:50:43;18.45;;;9.60;;
18610;SDS011;9435;52.122;5.502;2024-01-30T07:53:10;20.35;;;10.13;;
18610;SDS011;9435;52.122;5.502;2024-01-30T07:55:37;21.20;;;10.52;;
18610;SDS011;9435;52.122;5.502;2024-01-30T07:58:04;20.25;;;10.23;;
18610;SDS011;9435;52.122;5.502;2024-01-30T08:00:32;21.23;;;10.02;;
18610;SDS011;9435;52.122;5.502;2024-01-30T08:02:59;19.30;;;10.18;;
18610;SDS011;9435;52.122;5.502;2024-01-30T08:05:27;21.83;;;10.30;;
18610;SDS011;9435;52.122;5.502;2024-01-30T08:07:54;17.05;;;9.65;;
18610;SDS011;9435;52.122;5.502;2024-01-30T08:10:21;17.52;;;9.90;;
18610;SDS011;9435;52.122;5.502;2024-01-30T08:12:49;18.30;;;10.15;;
18610;SDS011;9435;52.122;5.502;2024-01-30T08:15:16;19.45;;;9.82;;
18610;SDS011;9435;52.122;5.502;2024-01-30T08:17:43;19.65;;;10.32;;
18610;SDS011;9435;52.122;5.502;2024-01-30T08:20:11;19.92;;;10.13;;
18610;SDS011;9435;52.122;5.502;2024-01-30T08:22:40;23.60;;;10.07;;
18610;SDS011;9435;52.122;5.502;2024-01-30T08:25:07;18.70;;;9.93;;
18610;SDS011;9435;52.122;5.502;2024-01-30T08:27:35;19.05;;;9.60;;
18610;SDS011;9435;52.122;5.502;2024-01-30T08:30:03;19.98;;;9.98;;
18610;SDS011;9435;52.122;5.502;2024-01-30T08:32:32;24.70;;;10.55;;
18610;SDS011;9435;52.122;5.502;2024-01-30T08:34:59;20.40;;;9.82;;
18610;SDS011;9435;52.122;5.502;2024-01-30T08:37:28;17.38;;;10.13;;
18610;SDS011;9435;52.122;5.502;2024-01-30T08:39:57;20.48;;;9.93;;
18610;SDS011;9435;52.122;5.502;2024-01-30T08:42:25;19.58;;;10.02;;
18610;SDS011;9435;52.122;5.502;2024-01-30T08:44:52;21.75;;;10.32;;
18610;SDS011;9435;52.122;5.502;2024-01-30T08:47:20;19.40;;;10.25;;
18610;SDS011;9435;52.122;5.502;2024-01-30T08:49:48;20.92;;;10.30;;
18610;SDS011;9435;52.122;5.502;2024-01-30T08:52:15;21.20;;;10.20;;
18610;SDS011;9435;52.122;5.502;2024-01-30T08:54:42;22.38;;;10.43;;
18610;SDS011;9435;52.122;5.502;2024-01-30T08:57:11;18.83;;;10.13;;
18610;SDS011;9435;52.122;5.502;2024-01-30T08:59:38;21.38;;;10.20;;
18610;SDS011;9435;52.122;5.502;2024-01-30T09:02:05;20.85;;;10.70;;
18610;SDS011;9435;52.122;5.502;2024-01-30T09:04:32;20.30;;;10.13;;
18610;SDS011;9435;52.122;5.502;2024-01-30T09:06:59;23.85;;;11.02;;
18610;SDS011;9435;52.122;5.502;2024-01-30T09:09:26;21.75;;;10.80;;
18610;SDS011;9435;52.122;5.502;2024-01-30T09:11:53;23.05;;;10.75;;
18610;SDS011;9435;52.122;5.502;2024-01-30T09:14:21;25.45;;;10.60;;
18610;SDS011;9435;52.122;5.502;2024-01-30T09:16:49;21.42;;;10.40;;
18610;SDS011;9435;52.122;5.502;2024-01-30T09:19:16;23.60;;;10.98;;
18610;SDS011;9435;52.122;5.502;2024-01-30T09:21:43;23.52;;;10.85;;
18610;SDS011;9435;52.122;5.502;2024-01-30T09:24:10;21.40;;;10.80;;
18610;SDS011;9435;52.122;5.502;2024-01-30T09:26:37;21.60;;;10.68;;
18610;SDS011;9435;52.122;5.502;2024-01-30T09:29:04;22.98;;;10.80;;
18610;SDS011;9435;52.122;5.502;2024-01-30T09:31:33;25.38;;;11.18;;
18610;SDS011;9435;52.122;5.502;2024-01-30T09:34:00;21.92;;;10.60;;
18610;SDS011;9435;52.122;5.502;2024-01-30T09:36:27;21.98;;;11.32;;
18610;SDS011;9435;52.122;5.502;2024-01-30T09:38:54;21.42;;;10.55;;
18610;SDS011;9435;52.122;5.502;2024-01-30T09:41:21;22.45;;;10.73;;
18610;SDS011;9435;52.122;5.502;2024-01-30T09:43:50;23.45;;;10.95;;
18610;SDS011;9435;52.122;5.502;2024-01-30T09:46:19;23.58;;;10.93;;
18610;SDS011;9435;52.122;5.502;2024-01-30T09:48:50;21.38;;;10.45;;
18610;SDS011;9435;52.122;5.502;2024-01-30T09:51:18;22.00;;;10.48;;
18610;SDS011;9435;52.122;5.502;2024-01-30T09:53:47;24.30;;;10.95;;
18610;SDS011;9435;52.122;5.502;2024-01-30T09:56:15;27.52;;;10.65;;
18610;SDS011;9435;52.122;5.502;2024-01-30T09:58:43;23.55;;;10.20;;
18610;SDS011;9435;52.122;5.502;2024-01-30T10:01:10;20.67;;;10.75;;
18610;SDS011;9435;52.122;5.502;2024-01-30T10:03:37;23.55;;;11.43;;
18610;SDS011;9435;52.122;5.502;2024-01-30T10:06:06;20.00;;;10.45;;
18610;SDS011;9435;52.122;5.502;2024-01-30T10:08:34;22.98;;;10.80;;
18610;SDS011;9435;52.122;5.502;2024-01-30T10:11:01;23.63;;;11.07;;
18610;SDS011;9435;52.122;5.502;2024-01-30T10:13:28;19.88;;;9.88;;
18610;SDS011;9435;52.122;5.502;2024-01-30T10:15:55;23.73;;;10.80;;
18610;SDS011;9435;52.122;5.502;2024-01-30T10:18:23;17.98;;;9.88;;
18610;SDS011;9435;52.122;5.502;2024-01-30T10:20:50;25.88;;;10.40;;
18610;SDS011;9435;52.122;5.502;2024-01-30T10:23:19;22.88;;;9.88;;
18610;SDS011;9435;52.122;5.502;2024-01-30T10:25:46;18.73;;;9.48;;
18610;SDS011;9435;52.122;5.502;2024-01-30T10:28:14;20.85;;;9.68;;
18610;SDS011;9435;52.122;5.502;2024-01-30T10:30:41;20.73;;;9.13;;
18610;SDS011;9435;52.122;5.502;2024-01-30T10:33:08;20.50;;;9.48;;
18610;SDS011;9435;52.122;5.502;2024-01-30T10:35:35;19.65;;;9.93;;
18610;SDS011;9435;52.122;5.502;2024-01-30T10:38:02;21.92;;;10.00;;
18610;SDS011;9435;52.122;5.502;2024-01-30T10:40:32;21.08;;;9.40;;
18610;SDS011;9435;52.122;5.502;2024-01-30T10:43:02;22.35;;;9.43;;
18610;SDS011;9435;52.122;5.502;2024-01-30T10:45:31;24.30;;;9.95;;
18610;SDS011;9435;52.122;5.502;2024-01-30T10:47:59;18.48;;;9.25;;
18610;SDS011;9435;52.122;5.502;2024-01-30T10:50:28;20.55;;;9.63;;
18610;SDS011;9435;52.122;5.502;2024-01-30T10:52:59;20.42;;;9.48;;
18610;SDS011;9435;52.122;5.502;2024-01-30T10:55:26;20.02;;;9.75;;
18610;SDS011;9435;52.122;5.502;2024-01-30T10:57:57;21.58;;;9.75;;
18610;SDS011;9435;52.122;5.502;2024-01-30T11:00:24;16.80;;;9.35;;
18610;SDS011;9435;52.122;5.502;2024-01-30T11:02:52;20.70;;;9.50;;
18610;SDS011;9435;52.122;5.502;2024-01-30T11:05:26;18.08;;;8.90;;
18610;SDS011;9435;52.122;5.502;2024-01-30T11:07:54;16.95;;;9.20;;
18610;SDS011;9435;52.122;5.502;2024-01-30T11:10:21;17.55;;;9.48;;
18610;SDS011;9435;52.122;5.502;2024-01-30T11:12:51;22.45;;;10.15;;
18610;SDS011;9435;52.122;5.502;2024-01-30T11:15:19;19.77;;;9.25;;
18610;SDS011;9435;52.122;5.502;2024-01-30T11:17:50;20.55;;;9.07;;
18610;SDS011;9435;52.122;5.502;2024-01-30T11:20:19;15.02;;;8.73;;
18610;SDS011;9435;52.122;5.502;2024-01-30T11:22:47;16.63;;;9.02;;
18610;SDS011;9435;52.122;5.502;2024-01-30T11:25:16;17.13;;;8.68;;
18610;SDS011;9435;52.122;5.502;2024-01-30T11:27:44;20.33;;;9.18;;
18610;SDS011;9435;52.122;5.502;2024-01-30T11:30:22;18.40;;;9.05;;
18610;SDS011;9435;52.122;5.502;2024-01-30T11:33:02;20.50;;;9.13;;
18610;SDS011;9435;52.122;5.502;2024-01-30T11:35:31;18.67;;;8.80;;
18610;SDS011;9435;52.122;5.502;2024-01-30T11:37:59;17.27;;;7.80;;
18610;SDS011;9435;52.122;5.502;2024-01-30T11:40:27;18.15;;;7.65;;
18610;SDS011;9435;52.122;5.502;2024-01-30T11:42:55;16.08;;;7.50;;
18610;SDS011;9435;52.122;5.502;2024-01-30T11:45:24;14.98;;;6.40;;
18610;SDS011;9435;52.122;5.502;2024-01-30T11:47:52;12.48;;;5.93;;
18610;SDS011;9435;52.122;5.502;2024-01-30T11:50:20;13.15;;;6.07;;
18610;SDS011;9435;52.122;5.502;2024-01-30T11:52:47;11.50;;;5.22;;
18610;SDS011;9435;52.122;5.502;2024-01-30T11:55:14;10.43;;;4.35;;
18610;SDS011;9435;52.122;5.502;2024-01-30T11:57:42;10.82;;;4.10;;
18610;SDS011;9435;52.122;5.502;2024-01-30T12:00:14;12.43;;;4.03;;
18610;SDS011;9435;52.122;5.502;2024-01-30T12:02:43;10.18;;;3.97;;
18610;SDS011;9435;52.122;5.502;2024-01-30T12:05:15;9.63;;;3.92;;
18610;SDS011;9435;52.122;5.502;2024-01-30T12:07:43;11.70;;;3.20;;
18610;SDS011;9435;52.122;5.502;2024-01-30T12:10:12;12.52;;;3.03;;
18610;SDS011;9435;52.122;5.502;2024-01-30T12:12:39;5.75;;;2.80;;
18610;SDS011;9435;52.122;5.502;2024-01-30T12:15:08;7.07;;;2.75;;
18610;SDS011;9435;52.122;5.502;2024-01-30T12:17:37;8.57;;;2.20;;
18610;SDS011;9435;52.122;5.502;2024-01-30T12:20:06;7.75;;;1.90;;
18610;SDS011;9435;52.122;5.502;2024-01-30T12:22:35;10.00;;;2.00;;
18610;SDS011;9435;52.122;5.502;2024-01-30T12:25:04;6.10;;;2.20;;
18610;SDS011;9435;52.122;5.502;2024-01-30T12:27:32;6.35;;;2.45;;
18610;SDS011;9435;52.122;5.502;2024-01-30T12:29:59;6.13;;;2.60;;
18610;SDS011;9435;52.122;5.502;2024-01-30T12:32:27;6.90;;;2.92;;
18610;SDS011;9435;52.122;5.502;2024-01-30T12:34:55;6.00;;;3.38;;
18610;SDS011;9435;52.122;5.502;2024-01-30T12:37:24;7.28;;;3.58;;
18610;SDS011;9435;52.122;5.502;2024-01-30T12:39:51;9.00;;;4.20;;
18610;SDS011;9435;52.122;5.502;2024-01-30T12:42:20;7.15;;;3.90;;
18610;SDS011;9435;52.122;5.502;2024-01-30T12:44:47;11.20;;;4.22;;
18610;SDS011;9435;52.122;5.502;2024-01-30T12:47:15;10.27;;;4.07;;
18610;SDS011;9435;52.122;5.502;2024-01-30T12:49:42;12.55;;;4.32;;
18610;SDS011;9435;52.122;5.502;2024-01-30T12:52:10;10.88;;;3.58;;
18610;SDS011;9435;52.122;5.502;2024-01-30T12:54:39;8.05;;;3.20;;
18610;SDS011;9435;52.122;5.502;2024-01-30T12:57:06;9.95;;;3.20;;
18610;SDS011;9435;52.122;5.502;2024-01-30T12:59:34;7.82;;;3.50;;
18610;SDS011;9435;52.122;5.502;2024-01-30T13:02:01;8.85;;;3.30;;
18610;SDS011;9435;52.122;5.502;2024-01-30T13:04:28;8.85;;;3.22;;
18610;SDS011;9435;52.122;5.502;2024-01-30T13:06:56;10.15;;;3.35;;
18610;SDS011;9435;52.122;5.502;2024-01-30T13:09:23;8.95;;;3.25;;
18610;SDS011;9435;52.122;5.502;2024-01-30T13:11:52;9.77;;;3.60;;
18610;SDS011;9435;52.122;5.502;2024-01-30T13:14:19;10.02;;;3.50;;
18610;SDS011;9435;52.122;5.502;2024-01-30T13:16:46;12.07;;;3.63;;
18610;SDS011;9435;52.122;5.502;2024-01-30T13:19:14;9.38;;;3.58;;
18610;SDS011;9435;52.122;5.502;2024-01-30T13:21:41;7.78;;;2.83;;
18610;SDS011;9435;52.122;5.502;2024-01-30T13:24:08;10.20;;;2.50;;
18610;SDS011;9435;52.122;5.502;2024-01-30T13:26:35;9.82;;;2.72;;
18610;SDS011;9435;52.122;5.502;2024-01-30T13:29:04;6.68;;;2.42;;
18610;SDS011;9435;52.122;5.502;2024-01-30T13:31:31;6.78;;;2.40;;
18610;SDS011;9435;52.122;5.502;2024-01-30T13:33:59;9.35;;;2.38;;
18610;SDS011;9435;52.122;5.502;2024-01-30T13:36:26;7.15;;;2.90;;
18610;SDS011;9435;52.122;5.502;2024-01-30T13:38:54;10.65;;;2.85;;
18610;SDS011;9435;52.122;5.502;2024-01-30T13:41:21;6.50;;;2.70;;
18610;SDS011;9435;52.122;5.502;2024-01-30T13:43:48;6.78;;;2.88;;
18610;SDS011;9435;52.122;5.502;2024-01-30T13:46:17;6.63;;;3.03;;
18610;SDS011;9435;52.122;5.502;2024-01-30T13:48:44;7.68;;;2.85;;
18610;SDS011;9435;52.122;5.502;2024-01-30T13:51:11;6.95;;;2.50;;
18610;SDS011;9435;52.122;5.502;2024-01-30T13:53:38;10.32;;;2.60;;
18610;SDS011;9435;52.122;5.502;2024-01-30T13:56:06;8.02;;;2.05;;
18610;SDS011;9435;52.122;5.502;2024-01-30T13:58:33;5.95;;;1.67;;
18610;SDS011;9435;52.122;5.502;2024-01-30T14:01:01;4.75;;;1.52;;
18610;SDS011;9435;52.122;5.502;2024-01-30T14:03:29;5.72;;;1.50;;
18610;SDS011;9435;52.122;5.502;2024-01-30T14:05:57;4.47;;;1.20;;
18610;SDS011;9435;52.122;5.502;2024-01-30T14:08:24;5.32;;;1.23;;
18610;SDS011;9435;52.122;5.502;2024-01-30T14:10:53;4.40;;;1.08;;
18610;SDS011;9435;52.122;5.502;2024-01-30T14:13:21;5.10;;;1.02;;
18610;SDS011;9435;52.122;5.502;2024-01-30T14:15:50;5.97;;;1.05;;
18610;SDS011;9435;52.122;5.502;2024-01-30T14:18:17;4.57;;;1.10;;
18610;SDS011;9435;52.122;5.502;2024-01-30T14:20:46;4.40;;;1.17;;
18610;SDS011;9435;52.122;5.502;2024-01-30T14:23:13;5.30;;;1.20;;
18610;SDS011;9435;52.122;5.502;2024-01-30T14:25:41;5.43;;;1.08;;
18610;SDS011;9435;52.122;5.502;2024-01-30T14:28:08;5.50;;;0.95;;
18610;SDS011;9435;52.122;5.502;2024-01-30T14:30:35;4.55;;;1.30;;
18610;SDS011;9435;52.122;5.502;2024-01-30T14:33:02;4.70;;;1.30;;
18610;SDS011;9435;52.122;5.502;2024-01-30T14:35:31;5.03;;;1.30;;
18610;SDS011;9435;52.122;5.502;2024-01-30T14:38:00;4.55;;;1.38;;
18610;SDS011;9435;52.122;5.502;2024-01-30T14:40:29;6.93;;;1.58;;
18610;SDS011;9435;52.122;5.502;2024-01-30T14:42:56;4.57;;;1.38;;